Time;durP1;ratioP1;P1;durP2;ratioP2;P2;SDS_P1;SDS_P2;PMS_P1;PMS_P2;Temp;Humidity;BMP_temperature;BMP_pressure;BME280_temperature;BME280_humidity;BME280_pressure;Samples;Min_cycle;Max_cycle;Signal;HPM_P1;HPM_P2
2024/01/17 00:00:13;;;;;;;5.45;2.33;;;;;;;-0.79;100.00;98805.72;4977068;28;20022;-96
2024/01/17 00:02:38;;;;;;;5.45;2.85;;;;;;;-0.74;100.00;98806.38;4960376;28;20030;-96
2024/01/17 00:05:04;;;;;;;7.35;2.28;;;;;;;-0.62;100.00;98800.03;4975186;28;20035;-95
2024/01/17 00:07:29;;;;;;;7.40;2.28;;;;;;;-0.59;99.89;98795.66;4978096;28;20467;-95
2024/01/17 00:09:55;;;;;;;4.07;2.00;;;;;;;-0.54;100.00;98790.41;4979923;28;20036;-92
2024/01/17 00:12:20;;;;;;;4.70;2.40;;;;;;;-0.52;100.00;98784.38;4982068;28;20058;-94
2024/01/17 00:14:46;;;;;;;2.78;1.67;;;;;;;-0.40;100.00;98777.19;4978749;28;20034;-94
2024/01/17 00:17:12;;;;;;;4.68;2.33;;;;;;;-0.69;100.00;98774.09;4979029;28;20026;-94
2024/01/17 00:19:37;;;;;;;3.70;2.00;;;;;;;-0.53;100.00;98767.53;4979109;28;20030;-93
2024/01/17 00:22:03;;;;;;;3.67;2.38;;;;;;;-0.49;100.00;98766.56;4969450;28;20485;-94
2024/01/17 00:24:28;;;;;;;5.03;1.77;;;;;;;-0.65;100.00;98762.97;4980750;28;20060;-96
2024/01/17 00:26:53;;;;;;;3.60;1.75;;;;;;;-0.52;100.00;98761.59;4988373;28;20065;-95
2024/01/17 00:29:19;;;;;;;3.72;2.22;;;;;;;-0.47;100.00;98764.75;4978808;28;20031;-93
2024/01/17 00:31:45;;;;;;;2.30;1.70;;;;;;;-0.69;100.00;98752.09;4980351;28;20034;-95
2024/01/17 00:34:10;;;;;;;2.75;1.45;;;;;;;-0.73;99.45;98742.13;4979772;28;20177;-94
2024/01/17 00:36:35;;;;;;;5.85;1.90;;;;;;;-0.77;100.00;98740.63;4979003;28;20025;-94
2024/01/17 00:39:01;;;;;;;3.10;1.70;;;;;;;-0.70;100.00;98736.97;4979383;28;20038;-94
2024/01/17 00:41:26;;;;;;;2.72;1.73;;;;;;;-0.61;100.00;98726.50;4978561;28;20019;-95
2024/01/17 00:43:51;;;;;;;1.85;1.50;;;;;;;-0.51;100.00;98732.84;4978659;28;20030;-95
2024/01/17 00:46:17;;;;;;;4.20;1.70;;;;;;;-0.49;100.00;98720.09;4978744;28;20030;-94
2024/01/17 00:48:43;;;;;;;2.10;1.38;;;;;;;-0.49;100.00;98720.94;4978278;28;20045;-95
2024/01/17 00:51:08;;;;;;;3.97;2.80;;;;;;;-0.44;100.00;98713.97;4979135;28;20034;-94
2024/01/17 00:53:34;;;;;;;3.60;1.45;;;;;;;-0.43;100.00;98715.59;4979097;28;20053;-95
2024/01/17 00:55:59;;;;;;;3.10;1.05;;;;;;;-0.52;100.00;98725.28;4978323;28;20037;-95
2024/01/17 00:58:24;;;;;;;3.13;1.80;;;;;;;-0.60;100.00;98712.09;4979172;28;20023;-94
2024/01/17 01:00:50;;;;;;;10.38;3.15;;;;;;;-0.63;100.00;98710.53;4979239;28;20374;-94
2024/01/17 01:03:15;;;;;;;9.98;4.32;;;;;;;-0.61;100.00;98701.16;4978854;28;20035;-93
2024/01/17 01:05:41;;;;;;;11.30;3.90;;;;;;;-0.57;100.00;98702.66;4978841;28;20080;-95
2024/01/17 01:08:06;;;;;;;9.57;3.92;;;;;;;-0.58;100.00;98690.88;4978650;28;20572;-95
2024/01/17 01:10:32;;;;;;;7.65;4.43;;;;;;;-0.65;100.00;98689.47;4978506;28;20026;-95
2024/01/17 01:12:57;;;;;;;6.43;2.67;;;;;;;-0.66;100.00;98687.81;4972303;28;20027;-95
2024/01/17 01:15:22;;;;;;;5.70;2.33;;;;;;;-0.53;100.00;98683.94;4978032;28;20429;-95
2024/01/17 01:17:48;;;;;;;3.75;1.95;;;;;;;-0.45;100.00;98676.81;4978055;28;20026;-94
2024/01/17 01:20:13;;;;;;;9.18;2.58;;;;;;;-0.41;100.00;98664.00;4978678;28;20519;-94
2024/01/17 01:22:39;;;;;;;4.60;1.85;;;;;;;-0.45;100.00;98660.81;4978465;28;20080;-95
2024/01/17 01:25:05;;;;;;;2.70;1.40;;;;;;;-0.49;100.00;98644.06;4978310;28;20498;-96
2024/01/17 01:27:31;;;;;;;4.15;1.83;;;;;;;-0.55;100.00;98639.25;4978291;28;20026;-96
2024/01/17 01:29:56;;;;;;;2.40;1.33;;;;;;;-0.38;100.00;98636.03;4994808;28;20023;-94
2024/01/17 01:32:21;;;;;;;1.90;1.35;;;;;;;-0.33;100.00;98629.06;4977646;28;20062;-94
2024/01/17 01:34:47;;;;;;;3.08;1.48;;;;;;;-0.27;100.00;98628.78;4977983;28;20491;-94
2024/01/17 01:37:12;;;;;;;2.72;1.52;;;;;;;-0.24;100.00;98613.47;4978045;28;20501;-94
2024/01/17 01:39:37;;;;;;;4.18;1.50;;;;;;;-0.24;100.00;98613.47;4978202;28;20018;-94
2024/01/17 01:42:03;;;;;;;6.43;2.10;;;;;;;-0.22;100.00;98606.59;4977889;28;20033;-95
2024/01/17 01:44:28;;;;;;;3.90;1.73;;;;;;;-0.20;100.00;98604.00;4995067;28;20555;-96
2024/01/17 01:46:55;;;;;;;2.53;1.70;;;;;;;-0.23;100.00;98595.63;4978196;28;20054;-95
2024/01/17 01:49:21;;;;;;;4.93;1.98;;;;;;;-0.38;100.00;98596.28;4977178;28;20523;-94
2024/01/17 01:51:48;;;;;;;2.83;1.10;;;;;;;-0.54;100.00;98593.56;4976840;28;20058;-94
2024/01/17 01:54:17;;;;;;;3.60;1.60;;;;;;;-0.51;100.00;98588.41;4977238;28;20069;-94
2024/01/17 01:56:43;;;;;;;1.52;1.00;;;;;;;-0.39;100.00;98583.69;4977327;28;20026;-94
2024/01/17 01:59:10;;;;;;;3.63;1.60;;;;;;;-0.39;100.00;98584.53;4978160;28;20038;-94
2024/01/17 02:01:36;;;;;;;3.10;1.25;;;;;;;-0.39;100.00;98576.91;4978637;28;20030;-94
2024/01/17 02:04:02;;;;;;;4.97;2.15;;;;;;;-0.31;100.00;98571.53;4994647;28;20022;-94
2024/01/17 02:06:33;;;;;;;9.48;4.85;;;;;;;-0.32;100.00;98564.78;4977562;28;20033;-94
2024/01/17 02:09:00;;;;;;;8.60;3.83;;;;;;;-0.37;100.00;98561.63;4976017;28;20133;-95
2024/01/17 02:11:28;;;;;;;4.97;2.83;;;;;;;-0.29;100.00;98560.44;4994852;28;20037;-95
2024/01/17 02:13:53;;;;;;;6.70;2.30;;;;;;;-0.26;100.00;98570.41;4978355;28;20105;-95
2024/01/17 02:16:19;;;;;;;4.22;1.35;;;;;;;-0.27;100.00;98557.81;4977839;28;20101;-94
2024/01/17 02:18:45;;;;;;;3.33;1.58;;;;;;;-0.20;100.00;98554.09;4977949;28;20073;-93
2024/01/17 02:21:11;;;;;;;3.83;1.35;;;;;;;-0.26;100.00;98547.59;4977756;28;20037;-94
2024/01/17 02:23:37;;;;;;;4.68;1.50;;;;;;;-0.28;100.00;98543.50;4978020;28;20084;-93
2024/01/17 02:26:02;;;;;;;3.20;1.60;;;;;;;-0.29;100.00;98537.59;4975701;28;20155;-93
2024/01/17 02:28:30;;;;;;;3.78;1.67;;;;;;;-0.24;100.00;98530.63;4994514;28;20034;-94
2024/01/17 02:30:56;;;;;;;3.45;1.40;;;;;;;-0.28;100.00;98525.75;4976438;28;20026;-94
2024/01/17 02:33:22;;;;;;;6.40;2.55;;;;;;;-0.28;100.00;98525.75;4978032;28;20425;-94
2024/01/17 02:35:47;;;;;;;1.98;1.10;;;;;;;-0.33;100.00;98522.59;4977751;28;20027;-93
2024/01/17 02:38:13;;;;;;;2.85;1.10;;;;;;;-0.36;100.00;98512.59;4977456;28;20026;-94
2024/01/17 02:40:39;;;;;;;2.60;1.40;;;;;;;-0.29;100.00;98503.84;4977508;28;20037;-95
2024/01/17 02:43:04;;;;;;;4.53;1.40;;;;;;;-0.35;100.00;98504.09;4977826;28;20093;-93
2024/01/17 02:45:30;;;;;;;2.63;1.77;;;;;;;-0.36;100.00;98502.47;4978009;28;20114;-95
2024/01/17 02:47:55;;;;;;;5.07;1.20;;;;;;;-0.30;100.00;98492.84;4977252;28;20480;-95
2024/01/17 02:50:21;;;;;;;4.22;1.38;;;;;;;-0.29;100.00;98484.38;4976414;28;20030;-95
2024/01/17 02:52:47;;;;;;;1.48;0.93;;;;;;;-0.38;100.00;98478.91;4977551;28;20026;-95
2024/01/17 02:55:15;;;;;;;3.15;1.42;;;;;;;-0.44;100.00;98480.81;4977705;28;20523;-96
2024/01/17 02:57:41;;;;;;;5.28;1.35;;;;;;;-0.41;100.00;98471.41;4977217;28;20026;-95
2024/01/17 03:00:08;;;;;;;6.05;1.52;;;;;;;-0.23;100.00;98468.06;4977746;28;20050;-96
2024/01/17 03:02:34;;;;;;;5.93;1.35;;;;;;;-0.35;100.00;98455.94;4976448;28;20022;-96
2024/01/17 03:04:59;;;;;;;3.67;1.50;;;;;;;-0.40;100.00;98453.59;4994141;28;20034;-94
2024/01/17 03:07:25;;;;;;;3.47;1.40;;;;;;;-0.41;100.00;98448.59;4976360;28;20029;-94
2024/01/17 03:09:50;;;;;;;3.30;1.65;;;;;;;-0.51;100.00;98446.50;4994503;28;20027;-93
2024/01/17 03:12:16;;;;;;;3.00;1.70;;;;;;;-0.32;100.00;98453.25;4977106;28;20397;-93
2024/01/17 03:14:41;;;;;;;3.75;1.40;;;;;;;-0.35;100.00;98438.19;4976529;28;20034;-94
2024/01/17 03:17:08;;;;;;;4.95;1.48;;;;;;;-0.34;100.00;98435.59;4976783;28;20030;-93
2024/01/17 03:19:34;;;;;;;6.88;1.90;;;;;;;-0.31;100.00;98430.38;4976842;28;20507;-94
2024/01/17 03:22:01;;;;;;;3.20;1.30;;;;;;;-0.45;100.00;98423.41;4976677;28;20046;-96
2024/01/17 03:24:26;;;;;;;2.75;1.90;;;;;;;-0.37;100.00;98417.97;4976795;28;20119;-95
2024/01/17 03:26:52;;;;;;;5.18;1.40;;;;;;;-0.35;100.00;98412.84;4976252;28;20030;-95
2024/01/17 03:29:17;;;;;;;5.82;1.50;;;;;;;-0.30;100.00;98408.38;4976656;28;20081;-96
2024/01/17 03:31:43;;;;;;;3.22;1.42;;;;;;;-0.25;100.00;98411.53;4976396;28;20034;-95
2024/01/17 03:34:08;;;;;;;3.70;1.63;;;;;;;-0.38;100.00;98403.69;4976600;28;20030;-95
2024/01/17 03:36:33;;;;;;;3.40;1.60;;;;;;;-0.37;100.00;98407.03;4976110;28;20033;-94
2024/01/17 03:38:59;;;;;;;4.70;1.88;;;;;;;-0.62;100.00;98394.66;4976740;28;20096;-94
2024/01/17 03:41:24;;;;;;;4.43;1.63;;;;;;;-0.47;100.00;98394.75;4976320;28;20026;-95
2024/01/17 03:43:50;;;;;;;2.75;1.25;;;;;;;-0.49;100.00;98388.97;4994066;28;20066;-94
2024/01/17 03:46:15;;;;;;;2.22;1.30;;;;;;;-0.49;100.00;98376.28;4974991;28;20118;-95
2024/01/17 03:48:41;;;;;;;2.28;1.38;;;;;;;-0.53;100.00;98364.66;4976633;28;20449;-95
2024/01/17 03:51:06;;;;;;;5.15;1.58;;;;;;;-0.40;100.00;98366.63;4976257;28;20030;-96
2024/01/17 03:53:33;;;;;;;3.45;1.67;;;;;;;-0.34;100.00;98368.84;4961089;28;20054;-95
2024/01/17 03:55:58;;;;;;;2.72;1.50;;;;;;;-0.28;100.00;98359.25;4994413;28;20086;-95
2024/01/17 03:58:24;;;;;;;5.60;1.77;;;;;;;-0.45;100.00;98365.09;4976826;28;20495;-95
2024/01/17 04:00:49;;;;;;;4.03;1.60;;;;;;;-0.44;100.00;98369.31;4993685;28;20069;-95
2024/01/17 04:03:15;;;;;;;5.20;1.85;;;;;;;-0.70;100.00;98364.59;4989624;28;20477;-94
2024/01/17 04:05:41;;;;;;;4.22;1.75;;;;;;;-0.61;100.00;98351.53;4975256;28;20369;-95
2024/01/17 04:08:06;;;;;;;5.10;2.03;;;;;;;-0.51;100.00;98341.78;4976242;28;20027;-95
2024/01/17 04:10:32;;;;;;;2.72;1.38;;;;;;;-0.44;100.00;98333.81;4993495;28;20034;-94
2024/01/17 04:12:58;;;;;;;7.88;2.00;;;;;;;-0.40;100.00;98336.22;4976323;28;20026;-95
2024/01/17 04:15:23;;;;;;;5.13;1.50;;;;;;;-0.40;100.00;98321.00;4976515;28;20088;-94
2024/01/17 04:17:49;;;;;;;5.30;1.83;;;;;;;-0.30;100.00;98319.66;4974736;28;20031;-95
2024/01/17 04:20:14;;;;;;;3.78;2.00;;;;;;;-0.34;100.00;98313.09;4993089;28;20038;-96
2024/01/17 04:22:40;;;;;;;7.47;1.80;;;;;;;-0.30;100.00;98299.41;4975807;28;20396;-96
2024/01/17 04:25:05;;;;;;;5.10;2.72;;;;;;;-0.27;100.00;98301.78;4975801;28;20472;-95
2024/01/17 04:27:31;;;;;;;2.97;1.30;;;;;;;-0.28;100.00;98305.22;4975811;28;20844;-95
2024/01/17 04:29:58;;;;;;;2.65;1.65;;;;;;;-0.25;100.00;98292.38;4976047;28;20018;-95
2024/01/17 04:32:23;;;;;;;2.85;1.85;;;;;;;-0.23;100.00;98277.94;4975498;28;20057;-95
2024/01/17 04:34:48;;;;;;;2.65;1.58;;;;;;;-0.21;100.00;98283.75;4975250;28;20045;-95
2024/01/17 04:37:14;;;;;;;2.38;1.67;;;;;;;-0.22;100.00;98274.50;4975288;28;20023;-95
2024/01/17 04:39:39;;;;;;;2.60;1.70;;;;;;;-0.25;100.00;98272.09;4975530;28;20033;-95
2024/01/17 04:42:04;;;;;;;3.42;1.75;;;;;;;-0.15;100.00;98280.91;4974492;28;20113;-95
2024/01/17 04:44:30;;;;;;;4.70;1.58;;;;;;;-0.14;100.00;98269.88;4975620;28;20031;-96
2024/01/17 04:46:57;;;;;;;2.53;1.52;;;;;;;-0.12;100.00;98263.03;4975553;28;20041;-94
2024/01/17 04:49:26;;;;;;;3.47;1.70;;;;;;;-0.12;100.00;98263.03;4975732;28;20029;-94
2024/01/17 04:51:54;;;;;;;4.38;1.60;;;;;;;-0.15;100.00;98268.22;4974704;28;20048;-94
2024/01/17 04:54:22;;;;;;;2.13;1.85;;;;;;;-0.11;100.00;98261.31;4977353;28;20029;-94
2024/01/17 04:56:48;;;;;;;7.45;2.20;;;;;;;-0.13;100.00;98256.31;4978845;28;20025;-95
2024/01/17 04:59:13;;;;;;;6.63;3.22;;;;;;;-0.16;100.00;98256.47;4978878;28;20392;-95
2024/01/17 05:01:38;;;;;;;3.45;1.58;;;;;;;-0.18;100.00;98255.72;4978790;28;20396;-94
2024/01/17 05:04:04;;;;;;;3.55;1.80;;;;;;;-0.13;100.00;98248.69;4978555;28;20090;-95
2024/01/17 05:06:30;;;;;;;3.58;1.73;;;;;;;-0.13;100.00;98241.09;4978523;28;20068;-95
2024/01/17 05:08:56;;;;;;;3.22;1.33;;;;;;;-0.07;100.00;98240.81;4979054;28;20030;-95
2024/01/17 05:11:22;;;;;;;1.85;1.33;;;;;;;0.01;100.00;98235.34;4978629;28;20069;-95
2024/01/17 05:13:48;;;;;;;3.40;1.70;;;;;;;0.05;100.00;98224.16;4996166;28;20105;-95
2024/01/17 05:16:14;;;;;;;2.50;1.30;;;;;;;0.03;100.00;98223.41;4996124;28;20104;-95
2024/01/17 05:18:39;;;;;;;2.80;0.93;;;;;;;-0.04;100.00;98219.53;4978326;28;20026;-95
2024/01/17 05:21:05;;;;;;;6.32;1.48;;;;;;;0.03;100.00;98220.06;4977975;28;20039;-94
2024/01/17 05:23:31;;;;;;;4.85;1.20;;;;;;;0.07;100.00;98216.47;4978290;28;20420;-95
2024/01/17 05:25:56;;;;;;;5.35;2.05;;;;;;;0.02;100.00;98203.19;4978321;28;20092;-94
2024/01/17 05:28:22;;;;;;;2.35;1.20;;;;;;;0.03;100.00;98207.38;4978380;28;20026;-94
2024/01/17 05:30:47;;;;;;;2.40;1.20;;;;;;;-0.06;100.00;98199.31;4995761;28;20069;-94
2024/01/17 05:33:13;;;;;;;1.83;0.93;;;;;;;-0.07;100.00;98195.16;4977979;28;20041;-95
2024/01/17 05:35:38;;;;;;;4.35;1.30;;;;;;;-0.01;100.00;98191.50;4977540;28;20037;-95
2024/01/17 05:38:04;;;;;;;1.75;1.00;;;;;;;0.01;100.00;98196.50;4977784;28;20365;-94
2024/01/17 05:40:29;;;;;;;1.98;1.33;;;;;;;-0.03;100.00;98185.66;4978075;28;20495;-95
2024/01/17 05:42:55;;;;;;;1.27;1.00;;;;;;;-0.03;100.00;98183.13;4977553;28;20038;-94
2024/01/17 05:45:20;;;;;;;1.60;0.75;;;;;;;-0.01;100.00;98191.50;4977581;28;20030;-94
2024/01/17 05:47:45;;;;;;;2.35;0.98;;;;;;;-0.02;100.00;98178.00;4978226;28;20026;-93
2024/01/17 05:50:14;;;;;;;1.60;0.93;;;;;;;-0.01;100.00;98172.00;4977998;28;20033;-95
2024/01/17 05:52:41;;;;;;;1.25;0.93;;;;;;;0.02;100.00;98172.75;4977685;28;20022;-95
2024/01/17 05:55:08;;;;;;;4.90;1.77;;;;;;;-0.03;100.00;98173.81;4977865;28;20026;-95
2024/01/17 05:57:34;;;;;;;2.67;0.93;;;;;;;-0.05;100.00;98162.94;4972985;28;20018;-92
2024/01/17 05:59:59;;;;;;;2.50;1.30;;;;;;;0.05;100.00;98162.44;4977116;28;20029;-94
2024/01/17 06:02:24;;;;;;;3.03;1.05;;;;;;;0.05;100.00;98152.31;4978073;28;20032;-94
2024/01/17 06:04:50;;;;;;;2.40;1.30;;;;;;;0.05;100.00;98152.31;4994841;28;20026;-95
2024/01/17 06:07:16;;;;;;;2.03;1.15;;;;;;;0.03;100.00;98157.47;4977676;28;20479;-93
2024/01/17 06:09:43;;;;;;;2.80;1.30;;;;;;;-0.15;100.00;98145.72;4977755;28;20370;-95
2024/01/17 06:12:09;;;;;;;3.08;1.20;;;;;;;-0.07;100.00;98141.91;4976912;28;20093;-95
2024/01/17 06:14:35;;;;;;;3.80;1.60;;;;;;;0.01;100.00;98141.50;4966755;28;20026;-95
2024/01/17 06:17:00;;;;;;;2.65;1.30;;;;;;;-0.02;100.00;98142.50;4994030;28;20033;-94
2024/01/17 06:19:26;;;;;;;3.10;1.45;;;;;;;-0.07;100.00;98139.38;4976920;28;20046;-95
2024/01/17 06:21:51;;;;;;;3.33;1.30;;;;;;;-0.06;100.00;98146.06;4976806;28;20465;-94
2024/01/17 06:24:16;;;;;;;3.95;1.73;;;;;;;0.01;100.00;98128.84;4976900;28;20042;-94
2024/01/17 06:26:42;;;;;;;4.35;1.42;;;;;;;0.18;100.00;98135.56;4994463;28;20031;-95
2024/01/17 06:29:08;;;;;;;1.88;1.40;;;;;;;0.14;100.00;98131.56;4977504;28;20035;-94
2024/01/17 06:31:33;;;;;;;2.47;1.50;;;;;;;0.14;100.00;98122.22;4977024;28;20030;-95
2024/01/17 06:33:58;;;;;;;4.90;1.50;;;;;;;0.17;100.00;98121.25;4975651;28;20118;-94
2024/01/17 06:36:24;;;;;;;3.88;1.52;;;;;;;0.19;100.00;98110.09;4976437;28;20524;-95
2024/01/17 06:38:50;;;;;;;2.42;1.50;;;;;;;0.27;100.00;98114.81;4976751;28;20457;-94
2024/01/17 06:41:17;;;;;;;4.20;1.52;;;;;;;0.11;100.00;98112.25;4994372;28;20031;-94
2024/01/17 06:43:42;;;;;;;3.00;1.40;;;;;;;0.09;100.00;98113.22;4977054;28;20041;-94
2024/01/17 06:46:07;;;;;;;2.38;1.40;;;;;;;0.06;100.00;98118.47;4976926;28;20030;-94
2024/01/17 06:48:33;;;;;;;1.50;1.25;;;;;;;0.05;100.00;98112.56;4977191;28;20023;-94
2024/01/17 06:50:58;;;;;;;3.08;1.27;;;;;;;0.08;100.00;98119.22;4994021;28;20455;-94
2024/01/17 06:53:23;;;;;;;2.47;1.48;;;;;;;0.10;100.00;98109.78;4976105;28;20069;-94
2024/01/17 06:55:49;;;;;;;2.20;1.70;;;;;;;-0.04;100.00;98108.78;4976378;28;20038;-95
2024/01/17 06:58:14;;;;;;;4.38;1.35;;;;;;;-0.04;100.00;98108.78;4975853;28;20496;-95
2024/01/17 07:00:41;;;;;;;2.70;2.00;;;;;;;-0.25;100.00;98117.47;4975865;28;20297;-94
2024/01/17 07:03:06;;;;;;;6.68;2.10;;;;;;;-0.38;100.00;98114.75;4976380;28;20038;-94
2024/01/17 07:05:32;;;;;;;4.78;2.25;;;;;;;-0.29;100.00;98114.31;4976585;28;20493;-93
2024/01/17 07:07:57;;;;;;;3.90;2.10;;;;;;;-0.23;100.00;98113.16;4975303;28;20031;-94
2024/01/17 07:10:23;;;;;;;4.63;2.08;;;;;;;-0.27;100.00;98122.66;4975573;28;20073;-94
2024/01/17 07:12:50;;;;;;;7.53;1.92;;;;;;;-0.24;100.00;98111.53;4976209;28;20029;-94
2024/01/17 07:15:16;;;;;;;8.27;2.60;;;;;;;-0.25;100.00;98109.88;4974257;28;20031;-93
2024/01/17 07:17:42;;;;;;;7.88;2.67;;;;;;;-0.43;100.00;98109.91;4973825;28;20100;-94
2024/01/17 07:20:08;;;;;;;4.82;2.50;;;;;;;-0.34;100.00;98115.41;4975890;28;20026;-94
2024/01/17 07:22:35;;;;;;;5.47;2.67;;;;;;;-0.34;100.00;98115.41;4975068;28;20537;-94
2024/01/17 07:25:00;;;;;;;4.95;3.20;;;;;;;-0.28;100.00;98110.03;4975474;28;20108;-93
2024/01/17 07:27:26;;;;;;;5.25;2.80;;;;;;;-0.33;100.00;98114.53;4976000;28;20057;-94
2024/01/17 07:29:51;;;;;;;5.85;2.80;;;;;;;-0.33;100.00;98117.06;4976353;28;20026;-94
2024/01/17 07:32:16;;;;;;;5.63;2.70;;;;;;;-0.37;100.00;98110.50;4975851;28;20106;-94
2024/01/17 07:34:42;;;;;;;5.00;2.80;;;;;;;-0.37;100.00;98120.63;4975803;28;20030;-95
2024/01/17 07:37:07;;;;;;;3.97;2.88;;;;;;;-0.35;100.00;98118.84;4989346;28;20448;-94
2024/01/17 07:39:32;;;;;;;4.57;2.83;;;;;;;-0.37;100.00;98111.31;4973908;28;20465;-94
2024/01/17 07:41:58;;;;;;;4.20;2.72;;;;;;;-0.33;100.00;98114.53;4975317;28;20026;-93
2024/01/17 07:44:27;;;;;;;5.75;2.47;;;;;;;-0.33;100.00;98117.88;4975930;28;20038;-93
2024/01/17 07:46:53;;;;;;;6.78;4.63;;;;;;;-0.37;100.00;98108.78;4976102;28;20039;-94
2024/01/17 07:49:19;;;;;;;4.82;2.53;;;;;;;-0.26;100.00;98113.31;4975836;28;20018;-93
2024/01/17 07:51:45;;;;;;;4.65;2.50;;;;;;;-0.26;100.00;98105.72;4975381;28;20027;-95
2024/01/17 07:54:10;;;;;;;5.05;2.55;;;;;;;-0.32;100.00;98098.41;4971742;28;20031;-94
2024/01/17 07:56:35;;;;;;;4.13;2.67;;;;;;;-0.24;100.00;98091.25;4992303;28;20487;-94
2024/01/17 07:59:01;;;;;;;3.85;2.40;;;;;;;-0.21;100.00;98096.16;4974803;28;20060;-93
2024/01/17 08:01:26;;;;;;;5.90;1.92;;;;;;;-0.11;100.00;98092.25;4975496;28;20125;-94
2024/01/17 08:03:51;;;;;;;3.85;1.95;;;;;;;-0.14;100.00;98089.88;4975945;28;20057;-94
2024/01/17 08:06:17;;;;;;;3.00;2.25;;;;;;;-0.06;100.00;98090.28;4964093;28;20030;-94
2024/01/17 08:08:42;;;;;;;4.57;1.73;;;;;;;-0.10;100.00;98093.91;4992649;28;20034;-93
2024/01/17 08:11:07;;;;;;;3.78;2.00;;;;;;;-0.08;100.00;98092.09;4974910;28;20106;-94
2024/01/17 08:13:34;;;;;;;4.38;2.00;;;;;;;-0.04;100.00;98088.50;4975330;28;20018;-95
2024/01/17 08:16:02;;;;;;;5.15;1.65;;;;;;;-0.01;100.00;98084.97;4966124;28;20046;-95
2024/01/17 08:18:28;;;;;;;3.22;2.00;;;;;;;0.06;100.00;98088.84;4974248;28;20061;-93
2024/01/17 08:20:53;;;;;;;3.75;1.88;;;;;;;0.04;100.00;98089.81;4975812;28;20058;-92
2024/01/17 08:23:18;;;;;;;3.08;1.95;;;;;;;0.10;100.00;98089.47;4991762;28;20186;-93
2024/01/17 08:25:44;;;;;;;2.67;1.95;;;;;;;0.15;100.00;98083.28;4974775;28;20018;-89
2024/01/17 08:28:09;;;;;;;2.42;2.00;;;;;;;0.16;100.00;98081.56;4996619;28;20049;-93
2024/01/17 08:30:35;;;;;;;7.22;2.40;;;;;;;0.20;100.00;98083.06;4977425;28;20030;-93
2024/01/17 08:33:00;;;;;;;7.78;3.55;;;;;;;0.21;100.00;98077.88;4977929;28;20441;-93
2024/01/17 08:35:25;;;;;;;9.65;3.35;;;;;;;0.27;100.00;98071.69;4979009;28;20072;-95
2024/01/17 08:37:51;;;;;;;7.72;2.95;;;;;;;0.28;100.00;98073.31;4979084;28;20033;-92
2024/01/17 08:40:16;;;;;;;3.63;2.67;;;;;;;0.27;100.00;98074.22;4996227;28;20082;-93
2024/01/17 08:42:43;;;;;;;10.30;3.80;;;;;;;0.35;100.00;98069.53;4978794;28;20117;-92
2024/01/17 08:45:10;;;;;;;5.25;2.85;;;;;;;0.33;100.00;98078.94;4991900;28;20469;-91
2024/01/17 08:47:36;;;;;;;4.28;2.83;;;;;;;0.40;100.00;98071.81;4994738;28;20385;-93
2024/01/17 08:50:01;;;;;;;11.23;3.72;;;;;;;0.46;100.00;98055.44;4977788;28;20034;-93
2024/01/17 08:52:27;;;;;;;14.98;2.80;;;;;;;0.53;100.00;98067.72;4978556;28;20172;-93
2024/01/17 08:54:55;;;;;;;5.65;3.28;;;;;;;0.60;100.00;98061.41;4978843;28;20022;-93
2024/01/17 08:57:21;;;;;;;7.65;3.20;;;;;;;0.61;100.00;98062.22;4995920;28;20149;-95
2024/01/17 08:59:46;;;;;;;6.30;3.33;;;;;;;0.67;100.00;98069.50;4992312;28;20121;-95
2024/01/17 09:02:12;;;;;;;9.45;2.88;;;;;;;0.65;100.00;98061.16;4975883;28;20062;-94
2024/01/17 09:04:37;;;;;;;4.72;2.75;;;;;;;0.72;100.00;98054.03;4972950;28;20492;-92
2024/01/17 09:07:03;;;;;;;9.10;3.58;;;;;;;0.78;100.00;98062.13;4989693;28;20049;-90
2024/01/17 09:09:28;;;;;;;6.40;2.67;;;;;;;0.88;100.00;98061.59;4991832;28;20034;-90
2024/01/17 09:11:54;;;;;;;4.32;3.00;;;;;;;0.84;100.00;98061.75;4986742;28;20523;-92
2024/01/17 09:14:21;;;;;;;7.55;3.00;;;;;;;0.81;100.00;98066.22;4973270;28;20544;-92
2024/01/17 09:16:49;;;;;;;4.93;3.25;;;;;;;0.78;100.00;98063.81;4992874;28;20030;-95
2024/01/17 09:19:15;;;;;;;3.83;2.83;;;;;;;0.79;99.16;98060.41;4972616;28;20081;-95
2024/01/17 09:21:40;;;;;;;5.70;2.90;;;;;;;0.96;98.46;98056.91;4970823;28;20034;-93
2024/01/17 09:24:05;;;;;;;5.43;2.67;;;;;;;0.95;99.14;98055.25;4993244;28;20033;-93
2024/01/17 09:26:31;;;;;;;5.07;2.58;;;;;;;1.04;99.21;98057.28;4976009;28;20481;-95
2024/01/17 09:28:56;;;;;;;5.68;3.67;;;;;;;1.08;98.38;98061.28;4975815;28;20109;-95
2024/01/17 09:31:22;;;;;;;4.90;3.08;;;;;;;1.15;97.12;98060.03;4976145;28;20184;-94
2024/01/17 09:33:47;;;;;;;7.63;2.97;;;;;;;1.13;96.28;98055.97;4989527;28;20042;-95
2024/01/17 09:36:12;;;;;;;6.93;4.22;;;;;;;1.13;96.49;98056.78;4992818;28;20033;-93
2024/01/17 09:38:37;;;;;;;5.50;2.78;;;;;;;1.18;96.20;98064.94;4971204;28;20031;-93
2024/01/17 09:41:04;;;;;;;4.43;3.40;;;;;;;1.25;96.37;98058.59;4991766;28;20049;-89
2024/01/17 09:43:30;;;;;;;6.35;2.83;;;;;;;1.24;97.35;98059.53;4989405;28;20085;-92
2024/01/17 09:45:58;;;;;;;6.60;3.88;;;;;;;1.36;96.45;98054.63;4991659;28;20057;-95
2024/01/17 09:48:25;;;;;;;9.65;4.63;;;;;;;1.44;95.33;98054.97;4991196;28;20037;-94
2024/01/17 09:50:51;;;;;;;8.63;4.03;;;;;;;1.42;95.41;98056.81;4974946;28;20034;-93
2024/01/17 09:53:21;;;;;;;9.75;4.32;;;;;;;1.45;94.21;98051.53;4973917;28;20435;-94
2024/01/17 09:55:47;;;;;;;6.90;3.40;;;;;;;1.46;93.50;98053.16;4974208;28;20030;-94
2024/01/17 09:58:13;;;;;;;5.40;3.75;;;;;;;1.45;94.29;98052.34;4971723;28;20030;-94
2024/01/17 10:00:41;;;;;;;5.28;3.08;;;;;;;1.56;93.46;98051.75;4973002;28;20362;-92
2024/01/17 10:03:07;;;;;;;6.43;2.83;;;;;;;1.58;93.47;98052.44;4991059;28;20077;-93
2024/01/17 10:05:34;;;;;;;3.33;2.22;;;;;;;1.63;93.87;98059.81;4969146;28;20042;-92
2024/01/17 10:08:00;;;;;;;5.88;2.70;;;;;;;1.63;92.05;98054.72;4974997;28;20033;-93
2024/01/17 10:10:25;;;;;;;5.53;2.70;;;;;;;1.60;92.75;98055.72;4973908;28;20026;-95
2024/01/17 10:12:54;;;;;;;4.63;2.22;;;;;;;1.59;92.99;98054.09;4971780;28;20054;-95
2024/01/17 10:15:23;;;;;;;7.32;2.30;;;;;;;1.71;93.43;98062.72;4992143;28;20024;-96
2024/01/17 10:17:48;;;;;;;4.70;2.30;;;;;;;1.70;90.59;98066.97;4969711;28;20030;-92
2024/01/17 10:20:14;;;;;;;6.45;3.00;;;;;;;1.80;91.24;98063.88;4988844;28;20386;-94
2024/01/17 10:22:41;;;;;;;4.95;2.38;;;;;;;1.83;92.19;98061.16;4973064;28;20027;-94
2024/01/17 10:25:08;;;;;;;4.68;2.33;;;;;;;1.81;93.66;98061.25;4972511;28;20473;-94
2024/01/17 10:27:34;;;;;;;5.15;2.30;;;;;;;1.94;93.61;98068.97;4977504;28;20105;-96
2024/01/17 10:30:00;;;;;;;4.95;2.88;;;;;;;2.06;92.64;98070.78;4974995;28;20065;-93
2024/01/17 10:32:27;;;;;;;6.50;2.45;;;;;;;2.10;93.29;98064.59;4991206;28;20062;-93
2024/01/17 10:34:53;;;;;;;8.85;2.63;;;;;;;2.09;93.00;98070.59;4991398;28;20027;-95
2024/01/17 10:37:19;;;;;;;11.18;3.55;;;;;;;2.19;92.81;98052.22;4979072;28;20030;-94
2024/01/17 10:39:44;;;;;;;9.20;2.75;;;;;;;2.25;93.26;98062.03;4990479;28;20039;-93
2024/01/17 10:42:20;;;;;;;5.60;2.60;;;;;;;2.30;93.92;98065.09;4985037;28;20034;-93
2024/01/17 10:44:45;;;;;;;5.57;2.83;;;;;;;2.22;95.43;98067.28;4967645;28;20061;-95
2024/01/17 10:47:11;;;;;;;7.80;3.22;;;;;;;2.34;95.07;98066.53;4973606;28;20041;-95
2024/01/17 10:49:36;;;;;;;10.32;3.00;;;;;;;2.32;95.03;98065.84;4969175;28;20457;-94
2024/01/17 10:52:07;;;;;;;8.57;2.97;;;;;;;2.32;95.64;98059.00;4987572;28;20105;-96
2024/01/17 10:54:50;;;;;;;5.28;3.53;;;;;;;2.50;95.70;98067.22;4975063;28;20022;-95
2024/01/17 10:57:19;;;;;;;6.97;3.78;;;;;;;2.41;95.68;98060.16;4986641;28;20034;-95
2024/01/17 10:59:49;;;;;;;5.45;3.38;;;;;;;2.62;95.72;98064.81;4969726;28;20026;-94
2024/01/17 11:02:18;;;;;;;9.73;3.60;;;;;;;2.61;96.52;98069.09;4972222;28;20450;-95
2024/01/17 11:04:46;;;;;;;7.95;3.95;;;;;;;2.58;98.18;98069.28;4974061;28;20034;-93
2024/01/17 11:07:16;;;;;;;7.97;4.13;;;;;;;2.51;98.92;98073.97;4975482;28;20025;-92
2024/01/17 11:09:42;;;;;;;9.43;4.18;;;;;;;2.60;100.00;98071.75;4985773;28;20026;-93
2024/01/17 11:12:09;;;;;;;7.18;4.70;;;;;;;2.64;100.00;98058.72;4974047;28;21568;-94
2024/01/17 11:14:36;;;;;;;11.90;4.47;;;;;;;2.72;100.00;98055.69;4973581;28;20041;-94
2024/01/17 11:17:04;;;;;;;7.47;4.25;;;;;;;2.86;100.00;98060.72;4991325;28;20041;-92
2024/01/17 11:19:34;;;;;;;11.18;5.20;;;;;;;2.77;100.00;98053.66;4992204;28;20109;-94
2024/01/17 11:22:03;;;;;;;9.50;4.85;;;;;;;2.86;100.00;98047.97;4975902;28;20054;-91